Weather observations for the past three days for
Blackwell-Tonkawa Municipal Airport
Metric (Imperial)
Date Time (cdt) Wind (kph) Vis. (km) Weather Sky Cond. Temperature (ºC) Relative Humidity Wind Chill (°C) Heat Index (°C) Pressure Precipitation (cm)
Air Dwpt 6 hour altimeter (cm) sea level (mb) 1 hr 3 hr 6 hr
Max. Min.
05 01:55 E 24 16.09 Fair CLR 20 16 78% 75.06 0.0
05 01:35 E 24 16.09 Fair CLR 20 16 78% 75.08 0.0
05 01:15 E 20 16.09 Fair CLR 20 16 78% 75.08 0.0
05 00:55 E 24 16.09 Fair CLR 21 16 73% 75.08 0.0
05 00:35 E 22 16.09 Fair CLR 21 16 73% 75.08 0.0
05 00:15 E 24 G 35 16.09 Fair CLR 21 16 73% 75.11 0.0
04 23:55 E 22 16.09 Fair CLR 21 17 78% 75.11 0.0
04 23:35 E 19 G 30 16.09 Fair CLR 21 17 78% 75.11 0.0
04 23:15 E 20 16.09 Fair CLR 20 17 83% 75.13 0.0
04 22:55 NE 15 16.09 Fair CLR 20 17 83% 75.13 0.0
04 22:35 E 13 16.09 Fair CLR 21 17 78% 75.13 0.0
04 22:15 E 15 16.09 Fair CLR 21 17 78% 75.11 0.0
04 21:55 E 17 16.09 Fair CLR 22 17 73% 75.11 0.0
04 21:35 E 15 16.09 A Few Clouds FEW120 22 17 73% 75.11 0.0
04 21:15 SE 13 16.09 A Few Clouds FEW120 23 17 69% 75.11 0.0
04 20:55 SE 17 16.09 Fair CLR 23 17 69% 75.08 0.0
04 20:35 E 17 16.09 Fair CLR 23 17 69% 75.08 0.0
04 20:15 SE 17 16.09 Fair CLR 24 16 61% 25 75.11 0.0
04 19:55 SE 17 16.09 Fair CLR 24 16 61% 25 75.08 0.0
04 19:35 SE 20 16.09 Fair CLR 25 16 57% 26 75.08 0.0
04 19:15 SE 24 G 35 16.09 Fair CLR 26 16 54% 27 75.08 0.0
04 18:55 SE 22 G 35 16.09 Fair CLR 26 16 54% 27 75.11 0.0
04 18:35 SE 22 G 31 16.09 Fair CLR 27 15 48% 27 75.11 0.0
04 18:15 SE 17 G 31 16.09 Fair CLR 27 15 48% 27 75.13 0.0
04 17:55 SE 19 G 35 16.09 Fair CLR 27 14 45% 27 75.16 0.0
04 17:35 S 19 G 33 16.09 Fair CLR 27 14 45% 27 75.16 0.0
04 17:15 S 20 16.09 Fair CLR 27 14 45% 27 75.16 0.0
04 16:55 S 22 16.09 Fair CLR 28 14 42% 28 75.18 0.0
04 16:35 S 28 16.09 Fair CLR 28 14 42% 28 75.18 0.0
04 16:15 S 24 G 35 16.09 Fair CLR 28 14 42% 28 75.21 0.0
04 15:55 S 22 G 41 16.09 Fair CLR 28 13 40% 28 75.23 0.0
04 15:35 S 33 G 43 16.09 Fair and Breezy CLR 29 13 37% 28 75.23 0.0
04 15:15 S 24 G 37 16.09 Fair CLR 29 13 37% 28 75.26 0.0
04 14:55 S 20 G 41 16.09 Fair CLR 30 13 35% 29 75.26 0.0
04 14:35 S 33 G 43 16.09 Fair and Breezy CLR 30 13 35% 29 75.29 0.0
04 14:15 S 22 G 41 16.09 Fair CLR 29 13 37% 28 75.29 0.0
04 13:55 S 26 G 39 16.09 Fair CLR 29 13 37% 28 75.31 0.0
04 13:35 S 30 G 44 16.09 Fair CLR 28 12 37% 27 75.31 0.0
04 13:15 S 33 G 44 16.09 Fair and Breezy CLR 28 12 37% 27 75.34 0.0
04 12:55 S 31 G 44 16.09 Fair CLR 28 12 37% 27 75.36 0.0
04 12:35 S 33 16.09 Fair and Breezy CLR 27 12 39% 27 75.39 0.0
04 12:15 S 33 G 46 16.09 Fair and Breezy CLR 27 12 39% 27 75.39 0.0
04 11:55 S 33 16.09 Fair and Breezy CLR 27 12 39% 27 75.39 0.0
04 11:35 S 33 G 46 16.09 Fair and Breezy CLR 27 12 39% 27 75.39 0.0
04 11:15 S 31 G 48 16.09 Fair CLR 26 12 42% 26 75.39 0.0
04 10:55 S 33 G 46 16.09 Fair and Breezy CLR 26 12 42% 26 75.41 0.0
04 10:35 S 37 G 50 16.09 Fair and Breezy CLR 25 11 42% 26 75.41 0.0
04 10:15 S 37 G 50 16.09 Fair and Breezy CLR 25 11 42% 26 75.41 0.0
04 09:55 S 33 G 44 16.09 Fair and Breezy CLR 24 11 44% 25 75.44 0.0
04 09:35 S 41 G 52 16.09 Fair and Breezy CLR 23 11 47% 75.44 0.0
04 09:15 S 35 G 50 16.09 Fair and Breezy CLR 23 10 44% 75.46 0.0
04 08:55 S 33 G 43 16.09 Fair and Breezy CLR 22 10 47% 75.46 0.0
04 08:35 S 22 G 41 16.09 Fair CLR 21 10 50% 75.46 0.0
04 08:15 S 31 16.09 Fair CLR 21 10 50% 75.46 0.0
04 07:55 S 20 G 33 16.09 Fair CLR 20 10 53% 75.46 0.0
04 07:35 S 24 G 35 16.09 Fair CLR 19 9 52% 75.46 0.0
04 07:15 S 26 16.09 Fair CLR 18 9 56% 75.44 0.0
04 06:55 S 22 G 35 16.09 Fair CLR 17 9 60% 75.46 0.0
04 06:35 S 24 G 33 16.09 Fair CLR 17 8 56% 75.46 0.0
04 06:15 S 24 16.09 Fair CLR 17 8 56% 75.46 0.0
04 05:55 S 24 G 35 16.09 Fair CLR 17 8 56% 75.49 0.0
04 05:35 S 26 G 37 16.09 Fair CLR 18 8 52% 75.49 0.0
04 05:15 S 28 16.09 Fair CLR 18 8 52% 75.49 0.0
04 04:55 S 28 G 41 16.09 Fair CLR 18 8 52% 75.51 0.0
04 04:35 S 26 G 37 16.09 Fair CLR 18 8 52% 75.54 0.0
04 04:15 S 26 G 37 16.09 Fair CLR 18 8 52% 75.54 0.0
04 03:55 S 31 16.09 Fair CLR 18 7 49% 75.57 0.0
04 03:35 S 28 G 41 16.09 Fair CLR 19 7 46% 75.57 0.0
04 03:15 S 30 G 41 16.09 Fair CLR 19 7 46% 75.59 0.0
04 02:55 S 31 16.09 Fair CLR 19 7 46% 75.59 0.0
04 02:35 S 33 G 48 16.09 Fair and Breezy CLR 20 7 43% 75.62 0.0
04 02:15 S 35 G 52 16.09 Fair and Breezy CLR 20 6 40% 75.62 0.0
04 01:55 S 35 G 50 16.09 Fair and Breezy CLR 20 6 40% 75.62 0.0
04 01:35 S 31 16.09 Fair CLR 20 6 40% 75.64 0.0
04 01:15 S 31 G 48 16.09 Fair CLR 20 6 40% 75.64 0.0
04 00:55 S 31 G 46 16.09 Fair CLR 20 6 40% 75.67 0.0
04 00:35 S 30 G 39 16.09 Fair CLR 21 6 38% 75.67 0.0
04 00:15 S 30 G 44 16.09 Fair CLR 21 6 38% 75.69 0.0
03 23:55 S 35 G 46 16.09 Fair and Breezy CLR 21 7 40% 75.69 0.0
03 23:35 S 31 16.09 Fair CLR 21 7 40% 75.69 0.0
03 23:15 S 26 G 39 16.09 Fair CLR 20 7 43% 75.72 0.0
03 22:55 S 26 G 37 16.09 Fair CLR 20 7 43% 75.72 0.0
03 22:35 S 26 G 35 16.09 Fair CLR 20 6 40% 75.72 0.0
03 22:15 S 22 16.09 Fair CLR 20 6 40% 75.74 0.0
03 21:55 S 24 16.09 Fair CLR 20 6 40% 75.72 0.0
03 21:35 S 20 16.09 Fair CLR 19 7 46% 75.72 0.0
03 21:15 S 17 16.09 Fair CLR 19 7 46% 75.72 0.0
03 20:55 S 17 16.09 Fair CLR 20 6 40% 75.69 0.0
03 20:35 S 17 16.09 Fair CLR 21 6 38% 75.69 0.0
03 20:15 S 17 16.09 Fair CLR 22 6 36% 75.67 0.0
03 19:55 S 19 16.09 Fair CLR 24 6 31% 25 75.67 0.0
03 19:35 S 20 G 33 16.09 Fair CLR 27 5 24% 26 75.67 0.0
03 19:15 S 26 16.09 Fair CLR 27 5 24% 26 75.69 0.0
03 18:55 S 26 G 37 16.09 Fair CLR 28 5 23% 27 75.69 0.0
03 18:35 S 24 16.09 Fair CLR 27 6 26% 26 75.72 0.0
03 18:15 S 24 G 44 16.09 Fair CLR 28 5 23% 27 75.72 0.0
03 17:55 S 26 G 39 16.09 Fair CLR 29 4 20% 27 75.74 0.0
03 17:35 SW 31 G 48 16.09 Fair CLR 31 2 16% 29 75.74 0.0
03 17:15 SW 37 G 48 16.09 Fair and Breezy CLR 31 3 17% 29 75.74 0.0
03 16:55 S 37 G 48 16.09 Fair and Breezy CLR 31 3 17% 29 75.77 0.0
03 16:35 SW 41 G 54 16.09 Fair and Breezy CLR 31 2 16% 29 75.79 0.0
03 16:15 S 39 G 54 16.09 Fair and Breezy CLR 31 2 16% 29 75.82 0.0
03 15:55 SW 37 G 50 16.09 Fair and Breezy CLR 32 3 16% 30 75.84 0.0
03 15:35 SW 33 G 46 16.09 Fair and Breezy CLR 32 3 16% 30 75.87 0.0
03 15:15 S 35 G 50 16.09 Fair and Breezy CLR 31 2 16% 29 75.87 0.0
03 14:55 S 20 G 46 16.09 Fair CLR 31 2 16% 29 75.92 0.0
03 14:35 S 31 G 46 16.09 Fair CLR 31 3 17% 29 75.95 0.0
03 13:55 SW 33 G 46 16.09 Fair and Breezy CLR 31 2 16% 29 76 0.0
03 13:35 S 30 G 39 16.09 Fair CLR 30 3 18% 28 76.02 0.0
03 13:15 SW 24 G 37 16.09 Fair CLR 30 3 18% 28 76.05 0.0
03 12:55 SW 24 G 37 16.09 Fair CLR 30 5 20% 28 76.1 0.0
03 12:35 SW 24 16.09 Fair CLR 29 6 23% 28 76.12 0.0
03 12:15 SW 19 G 30 16.09 Fair CLR 28 7 26% 27 76.15 0.0
03 11:55 SW 15 16.09 Fair CLR 27 8 30% 26 76.15 0.0
03 11:35 SW 17 16.09 Fair CLR 26 8 32% 26 76.17 0.0
03 10:55 SW 17 16.09 Fair CLR 24 9 39% 25 76.2 0.0
03 10:35 SW 15 16.09 Fair CLR 23 9 41% 76.23 0.0
03 10:15 SW 19 G 30 16.09 Fair CLR 22 9 44% 76.23 0.0
03 09:55 SW 17 16.09 Fair CLR 21 11 53% 76.23 0.0
03 09:35 SW 20 16.09 Fair CLR 20 10 53% 76.25 0.0
03 09:15 S 20 16.09 Fair CLR 19 10 56% 76.23 0.0
03 08:55 S 17 16.09 Fair CLR 17 11 68% 76.23 0.0
03 08:35 S 17 16.09 Fair CLR 16 11 72% 76.25 0.0
03 08:15 S 17 16.09 Fair CLR 14 11 82% 76.25 0.0
03 07:55 S 13 16.09 Fair CLR 13 10 82% 76.25 0.0
03 07:35 S 9 16.09 Fair CLR 11 9 88% 76.25 0.0
03 07:15 Calm 16.09 Fair CLR 9 8 94% 76.25 0.0
03 06:55 SE 7 16.09 Fair CLR 8 6 87% 7 76.23 0.0
03 06:35 SE 7 16.09 Fair CLR 7 6 93% 6 76.25 0.0
03 06:15 SE 7 16.09 Fair CLR 7 5 87% 6 76.23 0.0
03 05:55 SE 7 16.09 Fair CLR 8 6 87% 7 76.23 0.0
03 05:35 SE 7 16.09 Fair CLR 7 6 93% 6 76.25 0.0
03 05:15 SE 6 16.09 Fair CLR 8 6 87% 76.28 0.0
03 04:55 SE 6 16.09 Fair CLR 7 6 93% 76.28 0.0
03 04:35 SE 7 16.09 Fair CLR 7 6 93% 6 76.3 0.0
03 04:15 SE 7 16.09 Fair CLR 8 6 87% 7 76.33 0.0
03 03:55 SE 9 16.09 Fair CLR 8 6 87% 7 76.33 0.0
03 03:35 SE 7 16.09 Fair CLR 7 6 93% 6 76.35 0.0
03 03:15 SE 7 16.09 Fair CLR 7 6 93% 6 76.35 0.0
03 02:55 SE 7 16.09 Fair CLR 7 5 87% 6 76.38 0.0
03 02:35 SE 7 16.09 Fair CLR 7 5 87% 6 76.4 0.0
03 02:15 SE 7 16.09 Fair CLR 7 5 87% 6 76.4 0.0
03 01:55 SE 7 16.09 Fair CLR 8 5 82% 7 76.43 0.0
03 01:35 S 7 16.09 Fair CLR 8 6 87% 7 76.43 0.0
03 01:15 SE 7 16.09 Fair CLR 8 6 87% 7 76.43 0.0
03 00:55 SE 7 16.09 Fair CLR 8 6 87% 7 76.43 0.0
03 00:35 SE 9 16.09 Fair CLR 9 6 82% 8 76.43 0.0
03 00:15 SE 7 16.09 Fair CLR 8 5 82% 7 76.43 0.0
02 23:55 S 6 16.09 Fair CLR 9 5 76% 76.43 0.0
02 23:35 SE 9 16.09 Fair CLR 9 5 76% 8 76.43 0.0
02 23:15 E 7 16.09 Fair CLR 10 5 71% 9 76.4 0.0
02 22:55 SE 9 16.09 Fair CLR 11 6 72% 76.43 0.0
02 22:35 SE 9 16.09 Fair CLR 11 5 67% 76.43 0.0
02 22:15 E 7 16.09 Fair CLR 12 5 63% 76.43 0.0
02 21:55 SE 7 16.09 Fair CLR 12 5 63% 76.43 0.0
02 21:35 SE 9 16.09 Fair CLR 12 5 63% 76.43 0.0
02 21:15 SE 7 16.09 Fair CLR 13 5 59% 76.4 0.0
02 20:55 SE 7 16.09 Fair CLR 14 4 51% 76.4 0.0
02 20:35 SE 7 16.09 Fair CLR 15 4 48% 76.4 0.0
02 20:15 E 7 16.09 Fair CLR 17 4 42% 76.4 0.0
02 19:55 E 7 16.09 Fair CLR 20 4 35% 76.4 0.0
02 19:35 Calm 16.09 Fair CLR 21 3 31% 76.4 0.0
02 19:15 NE 6 16.09 Fair CLR 22 3 29% 76.4 0.0
02 18:55 SE 7 16.09 Fair CLR 23 3 27% 76.43 0.0
02 18:35 SE 6 16.09 Fair CLR 24 3 25% 25 76.43 0.0
02 18:15 Vrbl 7 16.09 Fair CLR 25 3 24% 25 76.43 0.0
02 17:55 Calm 16.09 Fair CLR 25 3 24% 25 76.45 0.0
02 17:35 Vrbl 6 16.09 Fair CLR 24 3 25% 25 76.45 0.0
02 17:15 N 7 16.09 Fair CLR 24 3 25% 25 76.45 0.0
02 16:55 Calm 16.09 Fair CLR 25 3 24% 25 76.48 0.0
02 16:35 Vrbl 7 16.09 Fair CLR 24 3 25% 25 76.48 0.0
02 16:15 Vrbl 9 G 19 16.09 Fair CLR 25 4 26% 25 76.5 0.0
02 15:55 Vrbl 7 16.09 Fair CLR 24 3 25% 25 76.53 0.0
02 15:35 N 9 16.09 Fair CLR 24 4 27% 25 76.56 0.0
02 15:15 Calm 16.09 Fair CLR 24 4 27% 25 76.56 0.0
02 14:55 N 13 16.09 Fair CLR 23 4 29% 76.56 0.0
02 14:35 Calm 16.09 Fair CLR 23 5 31% 76.58 0.0
02 14:15 Calm 16.09 Fair CLR 23 5 31% 76.58 0.0
02 13:55 Vrbl 6 G 19 16.09 Fair CLR 22 5 33% 76.61 0.0
02 13:35 N 13 16.09 Fair CLR 21 5 35% 76.63 0.0
02 13:15 Vrbl 9 G 20 16.09 Fair CLR 21 5 35% 76.63 0.0
02 12:55 Vrbl 6 G 19 16.09 Fair CLR 21 5 35% 76.66 0.0
02 12:35 Vrbl 7 G 19 16.09 Fair CLR 21 6 38% 76.66 0.0
02 12:15 Calm 16.09 Fair CLR 21 7 40% 76.68 0.0
02 11:55 NE 11 16.09 Fair CLR 20 7 43% 76.68 0.0
02 11:35 N 15 16.09 Fair CLR 20 7 43% 76.68 0.0
02 11:15 N 15 16.09 Fair CLR 19 8 49% 76.68 0.0
02 10:55 Vrbl 9 G 20 16.09 Fair CLR 18 8 52% 76.68 0.0
02 10:35 NE 15 16.09 Fair CLR 18 9 56% 76.68 0.0
02 10:15 NE 13 16.09 Fair CLR 17 8 56% 76.68 0.0
02 09:55 NE 11 16.09 Fair CLR 16 9 63% 76.68 0.0
02 09:35 NE 17 16.09 Fair CLR 16 10 68% 76.68 0.0
02 09:15 NE 17 16.09 Fair CLR 15 10 72% 76.68 0.0
02 08:55 NE 15 16.09 Fair CLR 14 10 77% 76.68 0.0
02 08:35 NE 15 16.09 Fair CLR 13 11 88% 76.63 0.0
02 08:15 NE 11 16.09 Partly Cloudy SCT070 12 10 88% 76.63 0.0
02 07:55 N 13 16.09 Partly Cloudy SCT070 12 11 94% 76.63 0.0
02 07:35 Calm 14.48 Fair CLR 10 10 100% 76.61 0.0
02 07:15 Calm 14.48 Fair CLR 8 8 100% 76.58 0.0
02 06:55 N 7 16.09 Fair CLR 8 8 100% 7 76.56 0.0
02 06:35 NE 7 16.09 A Few Clouds FEW070 FEW110 7 7 100% 6 76.53 0.0
02 06:15 NE 7 16.09 Partly Cloudy SCT070 7 7 100% 6 76.53 0.0
02 05:55 NE 7 16.09 Fair CLR 8 7 93% 7 76.53 0.0
02 05:35 NE 7 16.09 A Few Clouds FEW120 8 7 93% 7 76.5 0.0
02 05:15 Calm 16.09 A Few Clouds FEW120 8 7 93% 76.5 0.0
02 04:55 E 9 16.09 Fair CLR 9 8 94% 8 76.5 0.0
02 04:35 SE 11 16.09 A Few Clouds FEW110 9 8 94% 8 76.5 0.0
02 04:15 S 17 14.48 Light Rain FEW021 SCT060 OVC110 10 9 94% 8 76.53 0.0
02 03:55 SE 6 16.09 Mostly Cloudy FEW022 SCT060 BKN075 10 9 94% 76.53 0.0 0.03
02 03:35 E 11 16.09 Mostly Cloudy FEW046 SCT085 BKN120 10 9 94% 9 76.56 0.0
02 03:15 E 11 14.48 Light Drizzle SCT060 BKN070 OVC080 10 9 94% 9 76.53 0.0
02 02:55 NE 19 14.48 Light Drizzle FEW042 BKN060 OVC085 10 9 94% 8 76.56 0.0 0.03
02 02:35 NE 24 11.27 Light Rain FEW028 FEW041 OVC055 11 8 82% 76.58 0.0
02 02:15 N 30 G 39 12.87 Mostly Cloudy FEW050 SCT060 BKN075 13 7 67% 76.58 0.0
Date Time (cdt) Wind (kph) Vis. (km) Weather Sky Cond. Air Dwpt Max. Min. Relative Humidity Wind Chill (°C) Heat Index (°C) altimeter (cm) sea level (mb) 1 hr 3 hr 6 hr
6 hour
Temperature (ºC) Pressure Precipitation (cm)